Time;durP1;ratioP1;P1;durP2;ratioP2;P2;SDS_P1;SDS_P2;PMS_P1;PMS_P2;Temp;Humidity;BMP_temperature;BMP_pressure;BME280_temperature;BME280_humidity;BME280_pressure;Samples;Min_cycle;Max_cycle;Signal;HPM_P1;HPM_P2
2022/01/22 00:02:18;;;;;;;;;;;;;;;6.55;100.00;103402.63;5077152;28;19928;-38
2022/01/22 00:04:46;;;;;;;;;;;;;;;6.56;100.00;103404.31;5083324;28;19920;-37
2022/01/22 00:07:14;;;;;;;;;;;;;;;6.57;100.00;103403.25;5089474;28;20416;-34
2022/01/22 00:09:53;;;;;;;;;;;;;;;6.56;100.00;103398.78;5081331;28;19981;-34
2022/01/22 00:12:42;;;;;;;;;;;;;;;6.57;100.00;103400.50;5078364;28;19924;-36
2022/01/22 00:15:11;;;;;;;;;;;;;;;6.58;100.00;103398.56;5082656;28;19927;-32
2022/01/22 00:17:39;;;;;;;;;;;;;;;6.59;100.00;103399.44;5086737;28;19920;-32
2022/01/22 00:20:07;;;;;;;;;;;;;;;6.60;100.00;103403.88;5081727;28;19927;-39
2022/01/22 00:22:35;;;;;;;;;;;;;;;6.60;100.00;103392.78;5078583;28;21332;-34
2022/01/22 00:25:08;;;;;;;;;;;;;;;6.60;100.00;103403.88;5081515;28;19920;-35
2022/01/22 00:27:36;;;;;;;;;;;;;;;6.60;100.00;103390.88;5085718;28;19927;-32
2022/01/22 00:30:06;;;;;;;;;;;;;;;6.59;100.00;103382.78;5084180;28;19924;-33
2022/01/22 00:32:34;;;;;;;;;;;;;;;6.59;100.00;103394.72;5084320;28;19942;-41
2022/01/22 00:35:01;;;;;;;;;;;;;;;6.59;100.00;103394.72;5081232;28;19920;-36
2022/01/22 00:37:29;;;;;;;;;;;;;;;6.60;100.00;103395.56;5063371;28;20262;-40
2022/01/22 00:39:57;;;;;;;;;;;;;;;6.60;100.00;103401.09;5085126;28;19920;-35
2022/01/22 00:42:26;;;;;;;;;;;;;;;6.61;100.00;103391.72;5070094;28;19946;-31
2022/01/22 00:44:53;;;;;;;;;;;;;;;6.61;100.00;103397.25;5079676;28;19932;-31
2022/01/22 00:47:21;;;;;;;;;;;;;;;6.61;100.00;103391.72;5085417;28;20017;-34
2022/01/22 00:49:48;;;;;;;;;;;;;;;6.60;100.00;103387.22;5081964;28;20385;-40
2022/01/22 00:52:16;;;;;;;;;;;;;;;6.61;100.00;103394.50;5059443;28;19935;-37
2022/01/22 00:54:44;;;;;;;;;;;;;;;6.60;100.00;103384.47;5066110;28;19931;-36
2022/01/22 00:57:11;;;;;;;;;;;;;;;6.61;100.00;103391.72;5067502;28;19927;-37
2022/01/22 00:59:40;;;;;;;;;;;;;;;6.61;100.00;103384.25;5069058;28;20424;-36
2022/01/22 01:02:07;;;;;;;;;;;;;;;6.61;100.00;103383.41;5061227;28;19924;-29
2022/01/22 01:04:37;;;;;;;;;;;;;;;6.61;100.00;103384.25;5087247;28;19919;-33
2022/01/22 01:07:05;;;;;;;;;;;;;;;6.61;100.00;103383.41;5071833;28;20408;-34
2022/01/22 01:09:34;;;;;;;;;;;;;;;6.57;100.00;103378.28;5076473;28;19921;-31
2022/01/22 01:12:05;;;;;;;;;;;;;;;6.54;100.00;103381.50;5064097;28;20397;-30
2022/01/22 01:14:42;;;;;;;;;;;;;;;6.54;100.00;103377.84;5067834;28;19923;-35
2022/01/22 01:17:24;;;;;;;;;;;;;;;6.54;100.00;103383.41;5063152;28;20365;-35
2022/01/22 01:33:43;;;;;;;;;;;;;;;6.67;100.00;103386.19;5077972;28;19952;-40
2022/01/22 01:36:13;;;;;;;;;;;;;;;6.68;100.00;103385.13;5065004;28;19920;-38
2022/01/22 01:38:45;;;;;;;;;;;;;;;6.69;100.00;103394.31;5066651;28;19920;-34
2022/01/22 01:41:21;;;;;;;;;;;;;;;6.70;100.00;103396.88;5078180;28;19924;-33
2022/01/22 01:43:48;;;;;;;;;;;;;;;6.72;100.00;103402.22;5059413;28;19924;-41
2022/01/22 01:46:34;;;;;;;;;;;;;;;6.72;100.00;103399.44;5082827;28;20035;-39
2022/01/22 01:49:04;;;;;;;;;;;;;;;6.73;100.00;103401.16;5069345;28;19920;-41
2022/01/22 01:51:33;;;;;;;;;;;;;;;6.74;100.00;103405.63;5078719;28;19930;-38
2022/01/22 01:54:06;;;;;;;;;;;;;;;6.75;100.00;103410.13;5059821;28;19952;-33
2022/01/22 01:59:20;;;;;;;;;;;;;;;6.75;100.00;103407.34;5067055;28;20022;-36
2022/01/22 02:01:48;;;;;;;;;;;;;;;6.77;100.00;103405.22;5069040;28;20249;-37
2022/01/22 02:04:18;;;;;;;;;;;;;;;6.75;100.00;103397.09;5059665;28;19966;-32
2022/01/22 02:06:46;;;;;;;;;;;;;;;6.75;100.00;103394.31;5068916;28;19920;-35
2022/01/22 02:09:19;;;;;;;;;;;;;;;6.77;100.00;103399.66;5064621;28;20285;-35
2022/01/22 02:11:55;;;;;;;;;;;;;;;6.77;100.00;103402.44;5072992;28;19920;-37
2022/01/22 02:26:02;;;;;;;;;;;;;;;6.75;100.00;103401.78;5052524;28;19927;-35
2022/01/22 02:28:33;;;;;;;;;;;;;;;6.75;100.00;103401.78;5065757;28;20348;-36
2022/01/22 02:31:09;;;;;;;;;;;;;;;6.74;100.00;103405.63;5082214;28;19978;-32
2022/01/22 02:33:52;;;;;;;;;;;;;;;6.73;100.00;103399.22;5064047;28;20377;-32
2022/01/22 02:36:24;;;;;;;;;;;;;;;6.72;100.00;103400.28;5085736;28;19975;-35
2022/01/22 02:38:59;;;;;;;;;;;;;;;6.72;100.00;103397.50;5071019;28;19959;-32
2022/01/22 02:41:27;;;;;;;;;;;;;;;6.72;100.00;103397.50;5072461;28;19963;-32
2022/01/22 02:43:56;;;;;;;;;;;;;;;6.71;100.00;103397.72;5063977;28;19924;-34
2022/01/22 02:46:26;;;;;;;;;;;;;;;6.69;100.00;103397.94;5075992;28;19923;-33
2022/01/22 02:48:55;;;;;;;;;;;;;;;6.68;100.00;103399.00;5072062;28;20361;-34
2022/01/22 02:51:23;;;;;;;;;;;;;;;6.68;100.00;103399.00;5061949;28;19920;-34
2022/01/22 02:53:54;;;;;;;;;;;;;;;6.66;100.00;103392.81;5067271;28;19942;-35
2022/01/22 02:56:24;;;;;;;;;;;;;;;6.66;100.00;103391.94;5088026;28;20014;-34
2022/01/22 02:58:52;;;;;;;;;;;;;;;6.65;100.00;103390.22;5071390;28;19954;-33
2022/01/22 03:01:21;;;;;;;;;;;;;;;6.66;100.00;103391.94;5062453;28;19921;-33
2022/01/22 03:03:49;;;;;;;;;;;;;;;6.65;100.00;103391.09;5072043;28;19955;-34
2022/01/22 03:06:17;;;;;;;;;;;;;;;6.64;100.00;103394.94;5062477;28;19928;-31
2022/01/22 03:08:47;;;;;;;;;;;;;;;6.63;100.00;103387.66;5072060;28;20393;-36
2022/01/22 03:11:20;;;;;;;;;;;;;;;6.64;100.00;103388.53;5074812;28;20392;-34
2022/01/22 03:14:32;;;;;;;;;;;;;;;6.62;100.00;103391.50;5060138;28;19920;-37
2022/01/22 03:17:08;;;;;;;;;;;;;;;6.62;100.00;103405.38;5080572;28;20371;-30
2022/01/22 03:19:59;;;;;;;;;;;;;;;6.62;100.00;103398.97;5066980;28;19931;-36
2022/01/22 03:22:41;;;;;;;;;;;;;;;6.61;100.00;103389.81;5069418;28;19921;-35
2022/01/22 03:27:55;;;;;;;;;;;;;;;6.60;100.00;103392.78;5075309;28;20392;-33
2022/01/22 03:30:24;;;;;;;;;;;;;;;6.61;100.00;103391.72;5063985;28;19920;-33
2022/01/22 03:32:54;;;;;;;;;;;;;;;6.61;100.00;103400.91;5069070;28;19920;-40
2022/01/22 03:35:33;;;;;;;;;;;;;;;6.62;100.00;103402.59;5065362;28;20381;-41
2022/01/22 03:38:04;;;;;;;;;;;;;;;6.64;100.00;103417.13;5062315;28;19924;-40
2022/01/22 03:40:31;;;;;;;;;;;;;;;6.64;100.00;103405.16;5082604;28;20373;-36
2022/01/22 03:42:59;;;;;;;;;;;;;;;6.64;100.00;103403.25;5071099;28;19920;-36
2022/01/22 03:45:28;;;;;;;;;;;;;;;6.64;100.00;103397.72;5071035;28;20388;-35
2022/01/22 03:47:57;;;;;;;;;;;;;;;6.64;100.00;103399.63;5060680;28;20396;-38
2022/01/22 03:50:25;;;;;;;;;;;;;;;6.64;100.00;103397.72;5087075;28;19924;-37
2022/01/22 03:52:52;;;;;;;;;;;;;;;6.64;100.00;103396.84;5074095;28;20003;-36
2022/01/22 03:55:39;;;;;;;;;;;;;;;6.64;100.00;103392.16;5059123;28;20015;-39
2022/01/22 03:58:25;;;;;;;;;;;;;;;6.64;100.00;103408.81;5079860;28;19931;-36
2022/01/22 04:01:43;;;;;;;;;;;;;;;6.66;100.00;103408.59;5065512;28;20411;-31
2022/01/22 04:04:13;;;;;;;;;;;;;;;6.66;100.00;103415.00;5066278;28;20006;-29
2022/01/22 04:07:17;;;;;;;;;;;;;;;6.69;100.00;103413.72;5067752;28;20010;-32
2022/01/22 04:09:45;;;;;;;;;;;;;;;6.69;100.00;103419.28;5092606;28;19920;-33
2022/01/22 04:12:15;;;;;;;;;;;;;;;6.69;100.00;103419.28;5062256;28;19920;-38
2022/01/22 04:14:48;;;;;;;;;;;;;;;6.69;100.00;103419.28;5064525;28;19927;-39
2022/01/22 04:17:25;;;;;;;;;;;;;;;6.69;100.00;103413.72;5066907;28;19923;-35
2022/01/22 04:25:26;;;;;;;;;;;;;;;6.69;100.00;103420.13;5079172;28;19920;-36
2022/01/22 04:27:54;;;;;;;;;;;;;;;6.70;100.00;103421.00;5088041;28;19920;-32
2022/01/22 04:30:22;;;;;;;;;;;;;;;6.68;100.00;103417.56;5069743;28;19920;-35
2022/01/22 04:32:51;;;;;;;;;;;;;;;6.69;100.00;103402.63;5079893;28;19935;-37
2022/01/22 04:35:19;;;;;;;;;;;;;;;6.67;100.00;103410.31;5083161;28;19921;-34
2022/01/22 04:37:47;;;;;;;;;;;;;;;6.68;100.00;103409.25;5084067;28;20296;-37
2022/01/22 04:40:15;;;;;;;;;;;;;;;6.68;100.00;103412.88;5070471;28;19920;-35
2022/01/22 04:42:43;;;;;;;;;;;;;;;6.69;100.00;103413.72;5062158;28;20039;-36
2022/01/22 04:45:19;;;;;;;;;;;;;;;6.69;100.00;103422.91;5065904;28;19920;-34
2022/01/22 04:47:54;;;;;;;;;;;;;;;6.69;100.00;103417.34;5064401;28;19920;-36
2022/01/22 04:55:54;;;;;;;;;;;;;;;6.70;100.00;103427.41;5076346;28;19930;-37
2022/01/22 04:58:21;;;;;;;;;;;;;;;6.71;100.00;103423.56;5069066;28;19924;-42
2022/01/22 05:00:49;;;;;;;;;;;;;;;6.72;100.00;103425.25;5057956;28;19920;-33
2022/01/22 05:03:46;;;;;;;;;;;;;;;6.72;100.00;103424.41;5074797;28;19965;-33
2022/01/22 05:06:33;;;;;;;;;;;;;;;6.71;100.00;103426.31;5081299;28;19985;-31
2022/01/22 05:09:27;;;;;;;;;;;;;;;6.69;100.00;103422.06;5086204;28;19927;-29
2022/01/22 05:11:58;;;;;;;;;;;;;;;6.68;100.00;103429.53;5072965;28;19951;-35
2022/01/22 05:14:27;;;;;;;;;;;;;;;6.68;100.00;103434.22;5062432;28;19920;-38
2022/01/22 05:16:58;;;;;;;;;;;;;;;6.66;100.00;103428.00;5073715;28;19924;-37
2022/01/22 05:19:33;;;;;;;;;;;;;;;6.64;100.00;103425.44;5060193;28;19920;-38
2022/01/22 05:22:11;;;;;;;;;;;;;;;6.64;100.00;103422.69;5063238;28;19924;-39
2022/01/22 05:24:42;;;;;;;;;;;;;;;6.64;100.00;103424.59;5082836;28;19927;-40
2022/01/22 05:27:28;;;;;;;;;;;;;;;6.65;100.00;103426.31;5068765;28;19920;-35
2022/01/22 05:30:08;;;;;;;;;;;;;;;6.63;100.00;103420.09;5064742;28;19921;-33
2022/01/22 05:33:01;;;;;;;;;;;;;;;6.63;100.00;103425.66;5084946;28;19935;-33
2022/01/22 05:38:43;;;;;;;;;;;;;;;6.66;100.00;103433.56;5086500;28;19924;-33
2022/01/22 05:41:11;;;;;;;;;;;;;;;6.65;100.00;103429.06;5062518;28;19920;-32
2022/01/22 05:43:39;;;;;;;;;;;;;;;6.66;100.00;103416.91;5084461;28;19924;-38
2022/01/22 05:46:08;;;;;;;;;;;;;;;6.66;100.00;103426.09;5063549;28;19921;-32
2022/01/22 05:48:35;;;;;;;;;;;;;;;6.66;100.00;103433.56;5087964;28;20350;-31
2022/01/22 05:51:05;;;;;;;;;;;;;;;6.67;100.00;103443.59;5073451;28;19924;-32
2022/01/22 05:53:44;;;;;;;;;;;;;;;6.66;100.00;103436.34;5059802;28;19957;-36
2022/01/22 06:01:46;;;;;;;;;;;;;;;6.67;100.00;103438.06;5077715;28;19920;-33
2022/01/22 06:04:19;;;;;;;;;;;;;;;6.68;100.00;103448.09;5071320;28;19926;-35
2022/01/22 06:06:53;;;;;;;;;;;;;;;6.69;100.00;103444.25;5076789;28;19924;-35
2022/01/22 06:09:20;;;;;;;;;;;;;;;6.69;100.00;103441.47;5079471;28;19928;-32
2022/01/22 06:11:56;;;;;;;;;;;;;;;6.70;100.00;103445.97;5086548;28;20011;-33
2022/01/22 06:14:31;;;;;;;;;;;;;;;6.69;100.00;103445.09;5072427;28;19944;-39
2022/01/22 06:16:58;;;;;;;;;;;;;;;6.70;100.00;103446.81;5076530;28;19920;-40
2022/01/22 06:19:31;;;;;;;;;;;;;;;6.70;100.00;103448.72;5062705;28;20274;-34
2022/01/22 06:21:59;;;;;;;;;;;;;;;6.69;100.00;103447.88;5073955;28;19927;-35
2022/01/22 06:24:27;;;;;;;;;;;;;;;6.70;100.00;103443.19;5071062;28;19980;-35
2022/01/22 06:27:03;;;;;;;;;;;;;;;6.70;100.00;103446.81;5077080;28;19920;-30
2022/01/22 06:29:30;;;;;;;;;;;;;;;6.70;100.00;103449.59;5063218;28;19964;-37
2022/01/22 06:31:58;;;;;;;;;;;;;;;6.70;100.00;103448.72;5064438;28;19959;-35
2022/01/22 06:34:28;;;;;;;;;;;;;;;6.70;100.00;103457.06;5065304;28;19974;-36
2022/01/22 06:36:56;;;;;;;;;;;;;;;6.69;100.00;103461.75;5068059;28;19963;-34
2022/01/22 06:39:24;;;;;;;;;;;;;;;6.69;100.00;103460.91;5072228;28;20037;-36
2022/01/22 06:42:21;;;;;;;;;;;;;;;6.67;100.00;103463.88;5085819;28;19927;-34
2022/01/22 06:45:11;;;;;;;;;;;;;;;6.67;100.00;103458.31;5070195;28;20449;-33
2022/01/22 06:47:38;;;;;;;;;;;;;;;6.68;100.00;103456.41;5091266;28;19924;-31
2022/01/22 06:50:15;;;;;;;;;;;;;;;6.69;100.00;103452.56;5062732;28;20369;-31
2022/01/22 06:53:02;;;;;;;;;;;;;;;6.71;100.00;103456.00;5093312;28;19927;-35
2022/01/22 06:55:56;;;;;;;;;;;;;;;6.69;100.00;103450.66;5092156;28;20055;-35
2022/01/22 06:58:34;;;;;;;;;;;;;;;6.70;100.00;103448.72;5082158;28;19954;-33
2022/01/22 07:01:07;;;;;;;;;;;;;;;6.69;100.00;103450.66;5073263;28;19924;-35
2022/01/22 07:03:42;;;;;;;;;;;;;;;6.70;100.00;103445.97;5074308;28;19940;-39
2022/01/22 07:06:30;;;;;;;;;;;;;;;6.70;100.00;103454.28;5086310;28;19924;-39
2022/01/22 07:08:59;;;;;;;;;;;;;;;6.71;100.00;103456.00;5075615;28;19920;-39
2022/01/22 07:11:27;;;;;;;;;;;;;;;6.71;100.00;103453.22;5074119;28;20327;-37
2022/01/22 07:13:56;;;;;;;;;;;;;;;6.70;100.00;103449.59;5084462;28;19928;-38
2022/01/22 07:16:25;;;;;;;;;;;;;;;6.72;100.00;103446.59;5068287;28;20470;-39
2022/01/22 07:19:04;;;;;;;;;;;;;;;6.71;100.00;103444.91;5063017;28;20011;-35
2022/01/22 07:21:32;;;;;;;;;;;;;;;6.71;100.00;103437.44;5073000;28;20016;-40
2022/01/22 07:26:49;;;;;;;;;;;;;;;6.69;100.00;103445.09;5068592;28;19924;-35
2022/01/22 07:29:26;;;;;;;;;;;;;;;6.68;100.00;103448.09;5072541;28;20391;-32
2022/01/22 07:31:53;;;;;;;;;;;;;;;6.69;100.00;103447.88;5060275;28;19928;-35
2022/01/22 07:34:21;;;;;;;;;;;;;;;6.70;100.00;103445.97;5066761;28;19924;-33
2022/01/22 07:36:50;;;;;;;;;;;;;;;6.69;100.00;103433.16;5066283;28;20014;-35
2022/01/22 07:39:19;;;;;;;;;;;;;;;6.69;100.00;103441.47;5062623;28;19924;-37
2022/01/22 07:42:07;;;;;;;;;;;;;;;6.68;100.00;103450.84;5079083;28;19932;-35
2022/01/22 07:44:56;;;;;;;;;;;;;;;6.66;100.00;103439.97;5082627;28;19994;-40
2022/01/22 07:47:24;;;;;;;;;;;;;;;6.66;100.00;103444.66;5067017;28;20416;-34
2022/01/22 07:49:54;;;;;;;;;;;;;;;6.66;100.00;103442.75;5062644;28;19974;-39
2022/01/22 07:52:22;;;;;;;;;;;;;;;6.64;100.00;103438.47;5061247;28;19931;-38
2022/01/22 07:54:49;;;;;;;;;;;;;;;6.62;100.00;103435.03;5083370;28;19927;-34
2022/01/22 07:57:17;;;;;;;;;;;;;;;6.59;100.00;103433.56;5069572;28;19924;-36
2022/01/22 07:59:45;;;;;;;;;;;;;;;6.59;100.00;103441.03;5061125;28;19932;-42
2022/01/22 08:02:15;;;;;;;;;;;;;;;6.59;100.00;103443.81;5063779;28;19979;-36
2022/01/22 08:05:25;;;;;;;;;;;;;;;6.59;100.00;103447.44;5083023;28;19997;-34
2022/01/22 08:08:18;;;;;;;;;;;;;;;6.60;100.00;103451.91;5089034;28;19936;-35
2022/01/22 08:11:18;;;;;;;;;;;;;;;6.62;100.00;103455.31;5082256;28;20443;-34
2022/01/22 08:13:45;;;;;;;;;;;;;;;6.64;100.00;103460.66;5070747;28;19934;-36
2022/01/22 08:16:13;;;;;;;;;;;;;;;6.65;100.00;103452.13;5080580;28;20387;-36
2022/01/22 08:18:42;;;;;;;;;;;;;;;6.67;100.00;103449.16;5071563;28;20089;-36
2022/01/22 08:21:10;;;;;;;;;;;;;;;6.69;100.00;103455.34;5064282;28;19924;-37
2022/01/22 08:24:13;;;;;;;;;;;;;;;6.72;100.00;103472.44;4984599;28;20394;-34
2022/01/22 08:26:52;;;;;;;;;;;;;;;6.73;100.00;103470.53;5057617;28;19921;-34
2022/01/22 08:29:23;;;;;;;;;;;;;;;6.75;100.00;103466.47;5070205;28;19928;-34
2022/01/22 08:32:03;;;;;;;;;;;;;;;6.77;100.00;103456.03;5081215;28;19921;-37
2022/01/22 08:37:20;;;;;;;;;;;;;;;6.80;100.00;103454.72;5059661;28;19920;-33
2022/01/22 08:39:48;;;;;;;;;;;;;;;6.82;100.00;103452.59;5067995;28;19924;-35
2022/01/22 08:42:15;;;;;;;;;;;;;;;6.84;100.00;103461.56;5071514;28;20411;-37
2022/01/22 08:44:43;;;;;;;;;;;;;;;6.85;100.00;103468.81;5072223;28;20415;-34
2022/01/22 08:47:15;;;;;;;;;;;;;;;6.87;100.00;103461.16;5071831;28;19959;-36
2022/01/22 08:49:47;;;;;;;;;;;;;;;6.89;100.00;103464.56;5057630;28;19928;-39
2022/01/22 08:52:18;;;;;;;;;;;;;;;6.90;100.00;103471.84;5072505;28;19928;-38
2022/01/22 08:54:46;;;;;;;;;;;;;;;6.91;100.00;103459.66;5075651;28;20011;-35
2022/01/22 08:57:18;;;;;;;;;;;;;;;6.91;100.00;103459.66;5062427;28;19931;-34
2022/01/22 09:00:06;;;;;;;;;;;;;;;6.93;100.00;103463.09;5070678;28;20388;-33
2022/01/22 09:02:43;;;;;;;;;;;;;;;6.95;100.00;103466.50;5072021;28;19930;-35
2022/01/22 09:05:31;;;;;;;;;;;;;;;6.95;100.00;103452.63;5069894;28;19920;-31
2022/01/22 09:08:27;;;;;;;;;;;;;;;6.98;100.00;103462.47;5082827;28;19927;-34
2022/01/22 09:11:19;;;;;;;;;;;;;;;7.01;100.00;103475.88;5070078;28;19939;-31
2022/01/22 09:13:55;;;;;;;;;;;;;;;7.03;100.00;103470.97;5076835;28;19971;-36
2022/01/22 09:16:26;;;;;;;;;;;;;;;7.06;100.00;103485.31;5070762;28;19923;-34
2022/01/22 09:19:00;;;;;;;;;;;;;;;7.10;100.00;103482.97;5067173;28;19929;-32
2022/01/22 09:21:29;;;;;;;;;;;;;;;7.14;100.00;103492.59;5067379;28;19950;-38
2022/01/22 09:23:57;;;;;;;;;;;;;;;7.18;100.00;103483.63;5076658;28;19924;-29
2022/01/22 09:26:25;;;;;;;;;;;;;;;7.22;100.00;103487.66;5056157;28;19954;-33
2022/01/22 09:28:55;;;;;;;;;;;;;;;7.24;100.00;103491.09;5075768;28;19924;-35
2022/01/22 09:31:24;;;;;;;;;;;;;;;7.28;100.00;103497.06;5068187;28;20256;-32
2022/01/22 09:33:55;;;;;;;;;;;;;;;7.28;100.00;103488.75;5069792;28;19946;-37
2022/01/22 09:36:40;;;;;;;;;;;;;;;7.31;100.00;103490.25;5067071;28;19927;-38
2022/01/22 09:39:20;;;;;;;;;;;;;;;7.31;100.00;103480.00;5068639;28;19924;-35
2022/01/22 09:41:53;;;;;;;;;;;;;;;7.34;100.00;103495.38;5075011;28;19971;-33
2022/01/22 09:44:49;;;;;;;;;;;;;;;7.35;100.00;103489.59;5076920;28;19926;-35
2022/01/22 09:47:38;;;;;;;;;;;;;;;7.37;100.00;103503.28;5061878;28;20320;-32
2022/01/22 09:50:17;;;;;;;;;;;;;;;7.38;100.00;103502.22;5065126;28;19920;-34
2022/01/22 09:52:57;;;;;;;;;;;;;;;7.40;100.00;103511.16;5078812;28;19931;-34
2022/01/22 09:55:43;;;;;;;;;;;;;;;7.42;100.00;103503.47;5074989;28;19943;-31
2022/01/22 09:58:31;;;;;;;;;;;;;;;7.41;100.00;103496.22;5066405;28;19950;-37
2022/01/22 10:01:34;;;;;;;;;;;;;;;7.41;100.00;103510.97;5067185;28;19927;-36
2022/01/22 10:04:13;;;;;;;;;;;;;;;7.40;100.00;103511.16;5066474;28;20007;-36
2022/01/22 10:06:53;;;;;;;;;;;;;;;7.40;100.00;103527.84;5081391;28;20010;-33
2022/01/22 10:09:46;;;;;;;;;;;;;;;7.42;100.00;103520.16;5062226;28;19931;-33
2022/01/22 10:12:43;;;;;;;;;;;;;;;7.43;100.00;103521.84;5085433;28;20016;-39
2022/01/22 10:15:42;;;;;;;;;;;;;;;7.42;100.00;103518.22;5078031;28;19947;-33
2022/01/22 10:18:19;;;;;;;;;;;;;;;7.43;100.00;103511.59;5057055;28;19939;-38
2022/01/22 10:20:47;;;;;;;;;;;;;;;7.44;100.00;103512.47;5082993;28;20031;-35
2022/01/22 10:23:22;;;;;;;;;;;;;;;7.46;100.00;103507.53;5074445;28;19942;-32
2022/01/22 10:26:00;;;;;;;;;;;;;;;7.48;100.00;103510.97;5077455;28;19926;-37
2022/01/22 10:28:29;;;;;;;;;;;;;;;7.52;100.00;103509.47;5085468;28;19920;-36
2022/01/22 10:31:06;;;;;;;;;;;;;;;7.55;100.00;103503.50;5082332;28;19927;-39
2022/01/22 10:34:04;;;;;;;;;;;;;;;7.57;100.00;103502.22;5083347;28;19920;-37
2022/01/22 10:36:58;;;;;;;;;;;;;;;7.60;100.00;103506.47;5052394;28;19935;-37
2022/01/22 10:39:45;;;;;;;;;;;;;;;7.62;100.00;103509.88;5083285;28;19963;-35
2022/01/22 10:42:22;;;;;;;;;;;;;;;7.63;100.00;103508.81;5083698;28;19969;-37
2022/01/22 10:44:51;;;;;;;;;;;;;;;7.66;100.00;103516.72;5067759;28;20018;-30
2022/01/22 10:47:19;;;;;;;;;;;;;;;7.68;100.00;103520.16;5074546;28;19924;-38
2022/01/22 10:49:47;;;;;;;;;;;;;;;7.69;100.00;103521.00;5079449;28;20389;-35
2022/01/22 10:52:14;;;;;;;;;;;;;;;7.69;100.00;103527.41;5087821;28;20018;-36
2022/01/22 10:54:42;;;;;;;;;;;;;;;7.69;100.00;103532.97;5082064;28;19919;-31
2022/01/22 10:57:11;;;;;;;;;;;;;;;7.70;100.00;103526.34;5079506;28;19966;-29
2022/01/22 10:59:44;;;;;;;;;;;;;;;7.71;100.00;103530.84;5088125;28;20023;-35
2022/01/22 11:02:13;;;;;;;;;;;;;;;7.72;100.00;103528.91;5087126;28;19931;-37
2022/01/22 11:04:42;;;;;;;;;;;;;;;7.72;100.00;103524.22;5077558;28;19920;-35
2022/01/22 11:07:15;;;;;;;;;;;;;;;7.73;100.00;103523.16;5085454;28;19919;-35
2022/01/22 11:10:00;;;;;;;;;;;;;;;7.74;100.00;103508.19;5078473;28;19921;-38
2022/01/22 11:12:28;;;;;;;;;;;;;;;7.77;100.00;103507.75;5085805;28;20004;-36
2022/01/22 11:14:57;;;;;;;;;;;;;;;7.80;100.00;103503.66;5078532;28;20373;-35
2022/01/22 11:17:30;;;;;;;;;;;;;;;7.83;100.00;103511.56;5083081;28;19924;-32
2022/01/22 11:19:58;;;;;;;;;;;;;;;7.85;100.00;103518.63;5089043;28;20315;-38
2022/01/22 11:22:27;;;;;;;;;;;;;;;7.86;100.00;103520.34;5083855;28;20277;-36
2022/01/22 11:24:56;;;;;;;;;;;;;;;7.86;100.00;103517.56;5077654;28;19924;-39
2022/01/22 11:27:24;;;;;;;;;;;;;;;7.88;100.00;103523.75;5082711;28;20392;-36
2022/01/22 11:29:53;;;;;;;;;;;;;;;7.89;100.00;103519.91;5088518;28;19929;-34
2022/01/22 11:32:31;;;;;;;;;;;;;;;7.90;100.00;103523.56;5081121;28;19928;-32
2022/01/22 11:35:00;;;;;;;;;;;;;;;7.90;100.00;103524.41;5079613;28;19982;-35
2022/01/22 11:37:30;;;;;;;;;;;;;;;7.91;100.00;103531.69;5084645;28;19950;-33
2022/01/22 11:40:10;;;;;;;;;;;;;;;7.91;100.00;103531.69;5085773;28;19920;-31
2022/01/22 11:43:00;;;;;;;;;;;;;;;7.92;100.00;103533.41;5091170;28;19920;-32
2022/01/22 11:45:30;;;;;;;;;;;;;;;7.93;100.00;103517.56;5072489;28;19920;-34
2022/01/22 11:48:10;;;;;;;;;;;;;;;7.92;100.00;103522.28;5080523;28;19924;-38
2022/01/22 11:50:38;;;;;;;;;;;;;;;7.90;100.00;103537.44;5078123;28;19924;-36
2022/01/22 11:53:23;;;;;;;;;;;;;;;7.89;100.00;103533.81;5083679;28;20019;-36
2022/01/22 11:56:08;;;;;;;;;;;;;;;7.89;100.00;103525.47;5090908;28;20243;-30
2022/01/22 11:59:04;;;;;;;;;;;;;;;7.89;100.00;103531.03;5083298;28;19933;-32
2022/01/22 12:01:52;;;;;;;;;;;;;;;7.88;100.00;103526.53;5087290;28;19931;-34
2022/01/22 12:04:22;;;;;;;;;;;;;;;7.89;100.00;103528.25;5079312;28;20290;-35
2022/01/22 12:07:08;;;;;;;;;;;;;;;7.91;100.00;103531.69;5086660;28;20495;-34
2022/01/22 12:09:42;;;;;;;;;;;;;;;7.92;100.00;103533.41;5086531;28;20495;-38
2022/01/22 12:15:09;;;;;;;;;;;;;;;7.90;100.00;103529.97;5078334;28;19928;-33
2022/01/22 12:18:07;;;;;;;;;;;;;;;7.89;100.00;103536.59;5083418;28;20309;-33
2022/01/22 12:21:30;;;;;;;;;;;;;;;7.88;100.00;103532.09;5076295;28;19927;-32
2022/01/22 12:23:47;;;;;;;;;;;;;;;7.90;100.00;103535.53;5084995;28;19924;-31
2022/01/22 12:26:14;;;;;;;;;;;;;;;7.90;100.00;103526.34;5084573;28;19926;-30
2022/01/22 12:28:43;;;;;;;;;;;;;;;7.92;100.00;103532.53;5078962;28;20353;-31
2022/01/22 12:31:14;;;;;;;;;;;;;;;7.91;100.00;103534.47;5083009;28;19921;-35
2022/01/22 12:33:47;;;;;;;;;;;;;;;7.88;100.00;103537.66;5085030;28;19931;-35
2022/01/22 12:36:22;;;;;;;;;;;;;;;7.88;100.00;103537.66;5080425;28;19920;-35
2022/01/22 12:39:02;;;;;;;;;;;;;;;7.87;100.00;103537.88;5079673;28;19920;-33
2022/01/22 12:41:33;;;;;;;;;;;;;;;7.86;100.00;103539.81;5083338;28;19978;-34
2022/01/22 12:44:05;;;;;;;;;;;;;;;7.85;100.00;103538.09;5084126;28;19970;-36
2022/01/22 12:46:49;;;;;;;;;;;;;;;7.85;100.00;103537.25;5081901;28;19924;-39
2022/01/22 12:49:17;;;;;;;;;;;;;;;7.85;100.00;103538.09;5078468;28;20474;-35
2022/01/22 12:51:47;;;;;;;;;;;;;;;7.85;100.00;103532.53;5083305;28;19931;-35
2022/01/22 12:54:14;;;;;;;;;;;;;;;7.85;100.00;103531.69;5084577;28;19920;-34
2022/01/22 12:57:03;;;;;;;;;;;;;;;7.86;100.00;103533.38;5080318;28;20002;-33
2022/01/22 12:59:34;;;;;;;;;;;;;;;7.84;100.00;103535.53;5079373;28;19921;-33
2022/01/22 13:02:01;;;;;;;;;;;;;;;7.82;100.00;103530.19;5083258;28;19924;-34
2022/01/22 13:04:29;;;;;;;;;;;;;;;7.81;100.00;103542.38;5082810;28;19923;-35
2022/01/22 13:07:19;;;;;;;;;;;;;;;7.79;100.00;103538.97;5075802;28;19924;-37
2022/01/22 13:10:07;;;;;;;;;;;;;;;7.77;100.00;103524.44;5083493;28;19935;-35
2022/01/22 13:12:36;;;;;;;;;;;;;;;7.75;100.00;103528.50;5075391;28;19931;-35
2022/01/22 13:15:05;;;;;;;;;;;;;;;7.74;100.00;103519.31;5083898;28;19973;-33
2022/01/22 13:17:33;;;;;;;;;;;;;;;7.74;100.00;103527.63;5078725;28;20385;-31
2022/01/22 13:20:01;;;;;;;;;;;;;;;7.73;100.00;103525.94;5079768;28;19920;-36
2022/01/22 13:22:33;;;;;;;;;;;;;;;7.74;100.00;103524.88;5085187;28;20397;-33
2022/01/22 13:25:07;;;;;;;;;;;;;;;7.75;100.00;103521.00;5080984;28;19924;-32
2022/01/22 13:27:35;;;;;;;;;;;;;;;7.74;100.00;103519.31;5078154;28;20240;-33
2022/01/22 13:30:04;;;;;;;;;;;;;;;7.74;100.00;103522.09;5082494;28;19927;-36
2022/01/22 13:32:47;;;;;;;;;;;;;;;7.73;100.00;103525.06;5084245;28;20391;-34
2022/01/22 13:35:25;;;;;;;;;;;;;;;7.72;100.00;103518.66;5080709;28;19927;-36
2022/01/22 13:38:19;;;;;;;;;;;;;;;7.71;100.00;103525.28;5078260;28;19950;-37
2022/01/22 13:49:03;;;;;;;;;;;;;;;7.62;100.00;103501.53;5082937;28;20002;-42
2022/01/22 13:51:32;;;;;;;;;;;;;;;7.59;100.00;103491.72;5078678;28;19927;-31
2022/01/22 13:54:01;;;;;;;;;;;;;;;7.60;100.00;103495.34;5086265;28;19920;-41
2022/01/22 13:56:44;;;;;;;;;;;;;;;7.59;100.00;103499.22;5078786;28;19921;-33
2022/01/22 13:59:15;;;;;;;;;;;;;;;7.56;100.00;103494.09;5078810;28;20318;-37
2022/01/22 14:01:51;;;;;;;;;;;;;;;7.55;100.00;103497.94;5083881;28;19920;-32
2022/01/22 14:04:19;;;;;;;;;;;;;;;7.55;100.00;103509.06;5080912;28;20316;-37
2022/01/22 14:06:47;;;;;;;;;;;;;;;7.55;100.00;103497.94;5077426;28;19924;-41
2022/01/22 14:09:17;;;;;;;;;;;;;;;7.55;100.00;103503.50;5083210;28;19920;-35
2022/01/22 14:12:03;;;;;;;;;;;;;;;7.54;100.00;103507.34;5083062;28;19930;-37
2022/01/22 14:14:32;;;;;;;;;;;;;;;7.52;100.00;103504.78;5056531;28;19921;-33
2022/01/22 14:17:11;;;;;;;;;;;;;;;7.51;100.00;103511.41;5083193;28;19959;-36
2022/01/22 14:19:38;;;;;;;;;;;;;;;7.51;100.00;103518.88;5079018;28;19946;-34
2022/01/22 14:22:06;;;;;;;;;;;;;;;7.50;100.00;103519.94;5078072;28;19971;-37